M I D A S
Marine Information and Data Acquisition System
Tripno 1126 of the Zeeleeuw from 2006-06-07 04:01:00 to 2006-06-07 13:57:39
Back to CruiseResearch ActivitiesStationsMapUnderway DataData graphs

EquipmentUnitsComment
TimeDGPSUTC
LatitudeDGPSDM.mWGS84
LongitudeDGPSDM.mWGS84
TemperatureSBE03/SBE38deg celciusITS90
ConductivitySBE21S/mITS90
SalinitySBE21 Practical Salinity Units
ChlorophylAChelsea fluorimeterg/lCalibrated in Aceton
Missing or incorrect values are displayed as -999
Sea surface data collected by the RV Zeeleeuw from 2006-06-07 04:00:49 to 2006-06-07 14:08:24
Time Latitude Longitude Temperature Conductivity Salinity ChlorophylA
2006-06-07 04:01:55 51°13.622 2°56.019 20.869 0.00851 0.04839 12.365418
2006-06-07 04:02:55 51°13.65 2°55.902 18.3459 0.008614 0.048916 12.331708
2006-06-07 04:03:55 51°13.687 2°55.781 15.2778 3.868538 29.967346 13.646375
2006-06-07 04:04:53 51°13.702 2°55.726 15.1124 3.736317 29.63357 14.185725
2006-06-07 04:05:54 51°13.713 2°55.746 15.0617 3.693334 29.363824 12.331708
2006-06-07 04:06:55 51°13.721 2°55.737 15.0106 3.686382 29.346882 12.635093
2006-06-07 04:07:53 51°13.799 2°55.666 14.9406 3.685223 29.381222 13.174443
2006-06-07 04:08:53 51°13.939 2°55.553 14.9797 3.647088 29.084058 13.612665
2006-06-07 04:09:53 51°14.086 2°55.453 14.9896 3.706083 29.576274 14.286853
2006-06-07 04:10:55 51°14.226 2°55.326 14.9668 3.720623 29.713803 15.095879
2006-06-07 04:11:55 51°14.341 2°55.115 14.9274 3.666472 29.271549 15.500392
2006-06-07 04:12:54 51°14.477 2°54.884 14.8798 3.686699 29.433933 16.410546
2006-06-07 04:13:53 51°14.621 2°54.637 14.6676 3.835998 30.872817 17.792631
2006-06-07 04:14:54 51°14.759 2°54.365 14.4992 3.895115 31.558232 18.500529
2006-06-07 04:15:53 51°14.908 2°54.126 14.3996 3.89733 31.706748 19.478101
2006-06-07 04:16:53 51°15.052 2°53.879 14.372 3.901546 31.79974 21.163571
2006-06-07 04:17:53 51°15.188 2°53.61 14.3825 3.906183 31.861841 21.669212
2006-06-07 04:18:53 51°15.296 2°53.304 14.4026 3.910925 31.896164 22.208563
2006-06-07 04:19:55 51°15.392 2°52.976 14.3351 3.914613 31.931556 22.613076
2006-06-07 04:20:53 51°15.406 2°52.625 14.3259 3.904287 31.889691 22.983879
2006-06-07 04:21:53 51°15.43 2°52.262 14.3141 3.910926 31.949473 24.06258
2006-06-07 04:22:53 51°15.463 2°51.902 14.2666 3.915141 32.006722 24.669349
2006-06-07 04:23:54 51°15.494 2°51.535 14.2392 3.911243 32.014059 25.17499
2006-06-07 04:24:55 51°15.535 2°51.172 14.2012 3.912508 32.041379 25.849178
2006-06-07 04:25:53 51°15.574 2°50.825 14.1645 3.915564 32.108528 26.388529
2006-06-07 04:26:53 51°15.616 2°50.465 14.1668 3.913141 32.11112 26.927879
2006-06-07 04:27:54 51°15.658 2°50.101 14.1812 3.923257 32.193446 27.500939
2006-06-07 04:28:53 51°15.696 2°49.753 14.1693 3.927789 32.238067 28.242546
2006-06-07 04:29:55 51°15.734 2°49.391 14.1509 3.931056 32.266672 28.714477
2006-06-07 04:30:53 51°15.778 2°49.058 14.0578 3.929897 32.2867 28.714477
2006-06-07 04:31:55 51°15.82 2°48.694 14.0155 3.930952 32.368088 29.085281
2006-06-07 04:32:54 51°15.869 2°48.347 14.0208 3.925999 32.345743 29.11899
2006-06-07 04:33:54 51°15.924 2°47.994 14.0262 3.936116 32.434136 29.1527
2006-06-07 04:34:53 51°15.997 2°47.656 14.0002 3.938013 32.448337 29.1527
2006-06-07 04:35:53 51°16.067 2°47.313 13.9337 3.951608 32.605578 29.287537
2006-06-07 04:36:53 51°16.141 2°46.981 13.8438 3.969314 32.838982 29.354956
2006-06-07 04:37:55 51°16.211 2°46.638 13.8057 3.971106 32.91717 29.456084
2006-06-07 04:38:55 51°16.276 2°46.309 13.8002 3.970685 32.940244 29.725759
2006-06-07 04:39:53 51°16.344 2°45.996 13.7838 3.972793 32.968968 30.062853
2006-06-07 04:40:55 51°16.434 2°45.671 13.7702 3.972582 32.980206 29.961725
2006-06-07 04:41:53 51°16.512 2°45.361 13.7642 3.97195 32.982929 29.894306
2006-06-07 04:42:53 51°16.59 2°45.036 13.7543 3.968894 32.961886 30.130272
2006-06-07 04:43:53 51°16.685 2°44.726 13.7156 3.969948 32.984189 30.062853
2006-06-07 04:44:53 51°16.782 2°44.412 13.6953 3.969422 33.011037 29.928016
2006-06-07 04:45:55 51°16.88 2°44.08 13.6858 3.972162 33.055003 29.826888
2006-06-07 04:46:55 51°16.982 2°43.764 13.689 3.96742 33.013647 29.624631
2006-06-07 04:47:55 51°17.096 2°43.463 13.6712 3.962993 32.973903 29.590922
2006-06-07 04:48:53 51°17.203 2°43.168 13.6217 3.969212 33.055471 29.624631
2006-06-07 04:49:55 51°17.322 2°42.863 13.5883 3.980383 33.193232 29.658341
2006-06-07 04:50:55 51°17.45 2°42.576 13.58 3.985653 33.264317 29.725759
2006-06-07 04:51:53 51°17.573 2°42.293 13.578 3.987972 33.28992 29.725759
2006-06-07 04:52:53 51°17.704 2°42.005 13.5724 3.990606 33.322501 29.759469
2006-06-07 04:53:55 51°17.839 2°41.707 13.575 3.990817 33.326476 29.725759
2006-06-07 04:54:55 51°17.971 2°41.421 13.573 3.988182 33.301265 29.69205
2006-06-07 04:55:54 51°18.099 2°41.14 13.6247 3.981964 33.225972 29.658341
2006-06-07 04:56:53 51°18.225 2°40.858 13.5148 3.987234 33.269662 29.725759
2006-06-07 04:57:55 51°18.358 2°40.561 13.4946 4.006205 33.526555 29.826888
2006-06-07 04:58:52 51°18.482 2°40.292 13.4872 4.014847 33.621504 29.793178
2006-06-07 04:59:54 51°18.618 2°39.995 13.4836 4.01295 33.607847 29.759469
2006-06-07 05:00:55 51°18.753 2°39.706 13.4931 4.016428 33.638992 29.759469
2006-06-07 05:01:53 51°18.881 2°39.432 13.4751 4.017377 33.653291 29.759469
2006-06-07 05:02:55 51°19.019 2°39.138 13.467 4.017272 33.659101 29.759469
2006-06-07 05:03:55 51°19.149 2°38.853 13.4178 4.008524 33.594968 29.725759
2006-06-07 05:04:55 51°19.274 2°38.569 13.4483 4.02465 33.779253 29.961725
2006-06-07 05:05:55 51°19.4 2°38.286 13.4565 4.03814 33.874814 29.928016
2006-06-07 05:06:55 51°19.525 2°38.003 13.4857 4.040248 33.884281 29.860597
2006-06-07 05:07:55 51°19.659 2°37.731 13.4948 4.044147 33.895454 29.860597
2006-06-07 05:08:55 51°19.786 2°37.468 13.4962 4.045622 33.905153 29.860597
2006-06-07 05:09:55 51°19.876 2°37.279 13.4864 4.04752 33.929064 29.894306
2006-06-07 05:10:53 51°19.926 2°37.147 13.4558 4.047836 33.942301 29.928016
2006-06-07 05:11:52 51°19.961 2°37.057 13.4513 4.048152 33.965839 29.928016
2006-06-07 05:12:55 51°19.981 2°37.013 13.4536 4.048469 33.972233 29.928016
2006-06-07 05:13:55 51°19.99 2°36.984 13.4501 4.048363 33.971933 29.860597
2006-06-07 05:14:55 51°19.996 2°36.961 13.4592 4.048574 33.971161 29.894306
2006-06-07 05:15:53 51°19.998 2°36.941 13.4568 4.048574 33.970474 29.860597
2006-06-07 05:16:53 51°19.997 2°36.922 13.4545 4.047942 33.965924 29.860597
2006-06-07 05:17:55 51°19.995 2°36.902 13.4534 4.047942 33.965924 29.860597
2006-06-07 05:18:55 51°19.991 2°36.885 13.4476 4.047204 33.963132 29.894306
2006-06-07 05:19:55 51°19.986 2°36.868 13.4474 4.047731 33.971502 29.894306
2006-06-07 05:20:55 51°19.98 2°36.852 13.4301 4.048469 33.981162 29.928016
2006-06-07 05:21:55 51°19.976 2°36.836 13.4242 4.049628 34.002337 29.961725
2006-06-07 05:22:55 51°19.986 2°36.844 13.416 4.050366 34.021638 29.995435
2006-06-07 05:23:55 51°19.982 2°36.89 13.4284 4.049945 34.010115 30.062853
2006-06-07 05:24:55 51°19.971 2°36.967 13.4259 4.048047 33.989581 30.096563
2006-06-07 05:25:55 51°19.973 2°37.043 13.4247 4.047731 33.99143 30.163982
2006-06-07 05:26:55 51°19.965 2°37.046 13.4187 4.046677 33.982924 30.197691
2006-06-07 05:27:53 51°19.952 2°37.025 13.3979 4.046256 33.987223 30.197691
2006-06-07 05:28:52 51°19.941 2°37.01 13.4098 4.047099 34.008893 30.197691
2006-06-07 05:29:54 51°19.937 2°37.01 13.3867 4.04731 34.012248 30.197691
2006-06-07 05:30:55 51°19.939 2°37.015 13.3718 4.048997 34.041164 30.197691
2006-06-07 05:31:52 51°19.941 2°37.018 13.3814 4.050578 34.063592 30.2314
2006-06-07 05:32:55 51°19.941 2°37.017 13.3867 4.050683 34.056302 30.197691
2006-06-07 05:33:53 51°19.939 2°37.015 13.3934 4.048575 34.033071 30.197691
2006-06-07 05:34:53 51°19.939 2°37.012 13.3926 4.047626 34.01728 30.197691
2006-06-07 05:35:55 51°19.939 2°37.011 13.4012 4.046783 34.001109 30.2314
2006-06-07 05:36:53 51°19.94 2°37.013 13.4063 4.046994 34.002397 30.2314
2006-06-07 05:37:55 51°19.942 2°37.014 13.3908 4.047205 34.007816 30.26511
2006-06-07 05:38:55 51°19.942 2°37.015 13.3907 4.04204 33.969693 30.298819
2006-06-07 05:39:55 51°19.941 2°37.014 13.3821 4.042357 33.974723 30.26511
2006-06-07 05:40:53 51°19.939 2°37.013 13.3868 4.044886 34.000521 30.298819
2006-06-07 05:41:55 51°19.939 2°37.013 13.3751 4.046889 34.018624 30.332529
2006-06-07 05:42:53 51°19.938 2°37.015 13.3829 4.046256 34.017512 30.366238
2006-06-07 05:43:55 51°19.939 2°37.017 13.3741 4.046046 34.016912 30.366238
2006-06-07 05:44:55 51°19.939 2°37.016 13.3672 4.046256 34.025094 30.399947
2006-06-07 05:45:54 51°19.939 2°37.015 13.3611 4.046784 34.034179 30.399947
2006-06-07 05:46:53 51°19.939 2°37.014 13.3509 4.047416 34.047015 30.433657
2006-06-07 05:47:54 51°19.939 2°37.014 13.3467 4.047943 34.058177 30.433657
2006-06-07 05:48:55 51°19.94 2°37.014 13.3441 4.047627 34.057279 30.433657
2006-06-07 05:49:55 51°19.941 2°37.015 13.3392 4.0471 34.056472 30.433657
2006-06-07 05:50:55 51°19.941 2°37.015 13.3351 4.046784 34.056954 30.433657
2006-06-07 05:51:55 51°19.941 2°37.015 13.3278 4.047416 34.065659 30.467366
2006-06-07 05:52:54 51°19.941 2°37.015 13.3273 4.047733 34.07485 30.501076
2006-06-07 05:53:55 51°19.941 2°37.014 13.3242 4.047627 34.075934 30.501076
2006-06-07 05:54:55 51°19.941 2°37.014 13.3192 4.048049 34.082662 30.501076
2006-06-07 05:55:55 51°19.94 2°37.015 13.3206 4.048049 34.086812 30.534785
2006-06-07 05:56:55 51°19.94 2°37.015 13.3185 4.048365 34.091859 30.501076
2006-06-07 05:57:53 51°19.94 2°37.015 13.3239 4.048576 34.092457 30.568494
2006-06-07 05:58:55 51°19.941 2°37.015 13.3295 4.048154 34.084344 30.501076
2006-06-07 05:59:55 51°19.941 2°37.015 13.325 4.047943 34.078905 30.534785
2006-06-07 06:00:55 51°19.941 2°37.015 13.3298 4.048365 34.084942 30.568494
2006-06-07 06:01:55 51°19.942 2°37.016 13.3295 4.04826 34.079803 30.568494
2006-06-07 06:02:55 51°19.941 2°37.017 13.3343 4.048049 34.074366 30.568494
2006-06-07 06:03:53 51°19.939 2°37.018 13.3324 4.048154 34.075356 30.568494
2006-06-07 06:04:55 51°19.938 2°37.019 13.3291 4.048681 34.084457 30.635913
2006-06-07 06:05:55 51°19.938 2°37.02 13.3313 4.048681 34.084457 30.635913
2006-06-07 06:06:55 51°19.938 2°37.021 13.33 4.048997 34.086737 30.635913
2006-06-07 06:07:55 51°19.939 2°37.022 13.3307 4.049419 34.094157 30.669623
2006-06-07 06:08:55 51°19.939 2°37.022 13.333 4.049524 34.093073 30.635913
2006-06-07 06:09:55 51°19.939 2°37.022 13.3265 4.049314 34.092475 30.669623
2006-06-07 06:10:53 51°19.938 2°37.021 13.3273 4.050051 34.100793 30.669623
2006-06-07 06:11:55 51°19.938 2°37.021 13.3274 4.049946 34.098419 30.703332
2006-06-07 06:12:54 51°19.937 2°37.022 13.3241 4.050051 34.09941 30.737042
2006-06-07 06:13:54 51°19.937 2°37.022 13.3142 4.049946 34.10257 30.770751
2006-06-07 06:14:55 51°19.938 2°37.022 13.3024 4.050473 34.115139 30.770751
2006-06-07 06:15:52 51°19.937 2°37.022 13.3008 4.051106 34.131477 30.83817
2006-06-07 06:16:55 51°19.937 2°37.021 13.2955 4.050579 34.129292 30.770751
2006-06-07 06:17:52 51°19.937 2°37.021 13.2915 4.050473 34.133846 30.871879
2006-06-07 06:18:55 51°19.938 2°37.022 13.2842 4.051106 34.14465 30.871879
2006-06-07 06:19:55 51°19.938 2°37.023 13.279 4.051422 34.153176 30.871879
2006-06-07 06:20:55 51°19.938 2°37.023 13.2676 4.051844 34.164779 30.871879
2006-06-07 06:21:55 51°19.938 2°37.024 13.2668 4.051528 34.165968 30.871879
2006-06-07 06:22:55 51°19.938 2°37.025 13.2718 4.050895 34.160709 30.83817
2006-06-07 06:23:55 51°19.938 2°37.025 13.2743 4.050368 34.151583 30.83817
2006-06-07 06:24:54 51°19.938 2°37.027 13.2728 4.050263 34.147121 30.871879
2006-06-07 06:25:53 51°19.938 2°37.028 13.2696 4.050052 34.152076 30.871879
2006-06-07 06:26:55 51°19.938 2°37.029 13.2751 4.051001 34.156841 30.905589
2006-06-07 06:27:55 51°19.938 2°37.029 13.2707 4.050474 34.149105 30.871879
2006-06-07 06:28:55 51°19.938 2°37.029 13.2677 4.049736 34.146324 30.905589
2006-06-07 06:29:55 51°19.938 2°37.029 13.2661 4.049104 34.14384 30.905589
2006-06-07 06:30:55 51°19.937 2°37.028 13.2704 4.049209 34.146221 30.905589
2006-06-07 06:31:52 51°19.937 2°37.029 13.2656 4.04942 34.148205 30.905589
2006-06-07 06:32:55 51°19.937 2°37.029 13.2654 4.049525 34.15128 30.939298
2006-06-07 06:33:53 51°19.937 2°37.029 13.2673 4.04942 34.148899 30.939298
2006-06-07 06:34:55 51°19.936 2°37.029 13.2627 4.048577 34.142349 30.905589
2006-06-07 06:35:55 51°19.936 2°37.029 13.2684 4.047733 34.135104 30.905589
2006-06-07 06:36:55 51°19.936 2°37.03 13.2664 4.048366 34.135507 30.939298
2006-06-07 06:37:55 51°19.937 2°37.031 13.2697 4.047312 34.129054 30.973007
2006-06-07 06:38:55 51°19.938 2°37.033 13.27 4.047101 34.124295 30.939298
2006-06-07 06:39:55 51°19.939 2°37.035 13.267 4.046574 34.118641 31.006717
2006-06-07 06:40:52 51°19.939 2°37.036 13.2775 4.046469 34.116956 31.006717
2006-06-07 06:41:55 51°19.939 2°37.037 13.269 4.046996 34.117756 31.006717
2006-06-07 06:42:55 51°19.939 2°37.038 13.2653 4.046785 34.119932 31.040426
2006-06-07 06:43:55 51°19.938 2°37.038 13.2724 4.047101 34.124295 31.040426
2006-06-07 06:44:55 51°19.938 2°37.039 13.2719 4.047523 34.123409 31.040426
2006-06-07 06:45:55 51°19.938 2°37.038 13.2616 4.046996 34.128158 31.040426
2006-06-07 06:46:55 51°19.938 2°37.038 13.259 4.047206 34.129449 31.040426
2006-06-07 06:47:55 51°19.938 2°37.038 13.2621 4.047944 34.139865 31.074136
2006-06-07 06:48:55 51°19.94 2°37.04 13.2566 4.04805 34.139469 31.040426
2006-06-07 06:49:55 51°19.941 2°37.042 13.2541 4.048366 34.147306 31.107845
2006-06-07 06:50:55 51°19.941 2°37.043 13.2474 4.047944 34.14889 31.107845
2006-06-07 06:51:54 51°19.941 2°37.045 13.2429 4.047523 34.146309 31.107845
2006-06-07 06:52:55 51°19.942 2°37.047 13.2404 4.042042 34.095389 31.107845
2006-06-07 06:53:55 51°19.944 2°37.049 13.2381 4.048155 34.156433 31.107845
2006-06-07 06:54:55 51°19.944 2°37.051 13.2349 4.048788 34.164475 31.107845
2006-06-07 06:55:55 51°19.944 2°37.052 13.237 4.048999 34.171326 31.141554
2006-06-07 06:56:55 51°19.946 2°37.053 13.2349 4.048999 34.171326 31.107845
2006-06-07 06:57:55 51°19.946 2°37.054 13.2351 4.049104 34.171624 31.141554
2006-06-07 06:58:55 51°19.946 2°37.055 13.2255 4.049104 34.170929 31.107845
2006-06-07 06:59:55 51°19.946 2°37.055 13.2251 4.048893 34.177982 31.175264
2006-06-07 07:00:53 51°19.948 2°37.051 13.2252 4.048893 34.18146 31.141554
2006-06-07 07:01:55 51°19.947 2°37.052 13.2189 4.04921 34.18444 31.107845
2006-06-07 07:02:55 51°19.949 2°37.05 13.2167 4.049315 34.190305 31.141554
2006-06-07 07:03:55 51°19.949 2°37.052 13.2257 4.048893 34.184939 31.141554
2006-06-07 07:04:55 51°19.949 2°37.053 13.2286 4.048999 34.17828 31.141554
2006-06-07 07:05:55 51°19.949 2°37.054 13.2259 4.048472 34.174009 31.107845
2006-06-07 07:06:55 51°19.949 2°37.054 13.224 4.047839 34.168049 31.107845
2006-06-07 07:07:55 51°19.949 2°37.054 13.2214 4.046891 34.159805 31.107845
2006-06-07 07:08:55 51°19.95 2°37.054 13.2188 4.046575 34.161692 31.107845
2006-06-07 07:09:55 51°19.95 2°37.055 13.227 4.047312 34.165864 31.141554
2006-06-07 07:10:55 51°19.95 2°37.055 13.2385 4.047312 34.163083 31.141554
2006-06-07 07:11:55 51°19.949 2°37.056 13.2257 4.047102 34.159706 31.141554
2006-06-07 07:12:55 51°19.949 2°37.056 13.2239 4.04668 34.155734 31.141554
2006-06-07 07:13:55 51°19.949 2°37.056 13.2278 4.046785 34.157422 31.141554
2006-06-07 07:14:55 51°19.949 2°37.057 13.2315 4.046996 34.156628 31.175264
2006-06-07 07:15:55 51°19.95 2°37.057 13.2327 4.047207 34.155834 31.175264
2006-06-07 07:16:55 51°19.95 2°37.057 13.2472 4.046891 34.15216 31.175264
2006-06-07 07:17:55 51°19.95 2°37.056 13.2452 4.046996 34.145512 31.208973
2006-06-07 07:18:55 51°19.95 2°37.056 13.2448 4.046047 34.134494 31.175264
2006-06-07 07:19:55 51°19.95 2°37.056 13.2474 4.04552 34.128837 31.208973
2006-06-07 07:20:55 51°19.951 2°37.057 13.2507 4.045099 34.12209 31.208973
2006-06-07 07:21:55 51°19.952 2°37.057 13.2496 4.044888 34.120105 31.208973
2006-06-07 07:22:55 51°19.952 2°37.057 13.2493 4.045415 34.126456 31.242683
2006-06-07 07:23:55 51°19.953 2°37.058 13.2503 4.04531 34.126157 31.242683
2006-06-07 07:24:55 51°19.954 2°37.057 13.2521 4.045099 34.123478 31.208973
2006-06-07 07:25:55 51°19.954 2°37.057 13.2542 4.045099 34.120703 31.242683
2006-06-07 07:26:55 51°19.955 2°37.058 13.2542 4.045415 34.122292 31.242683
2006-06-07 07:27:55 51°19.956 2°37.058 13.2602 4.045836 34.124181 31.242683
2006-06-07 07:28:55 51°19.956 2°37.059 13.2678 4.045626 34.116646 31.242683
2006-06-07 07:29:55 51°19.955 2°37.061 13.2768 4.045836 34.109617 31.208973
2006-06-07 07:30:55 51°19.954 2°37.062 13.2904 4.04552 34.100404 31.242683
2006-06-07 07:31:55 51°19.954 2°37.062 13.3073 4.045836 34.089527 31.208973
2006-06-07 07:32:55 51°19.954 2°37.063 13.3219 4.04573 34.072621 31.242683
2006-06-07 07:33:55 51°19.954 2°37.062 13.3353 4.046152 34.062757 31.208973
2006-06-07 07:34:55 51°19.954 2°37.062 13.3435 4.046257 34.050622 31.276392
2006-06-07 07:35:55 51°19.954 2°37.061 13.3503 4.045835 34.045281 31.310101
2006-06-07 07:36:55 51°19.954 2°37.061 13.3593 4.046467 34.040178 31.343811
2006-06-07 07:37:55 51°19.954 2°37.062 13.3553 4.0471 34.039906 31.343811
2006-06-07 07:38:55 51°19.954 2°37.063 13.3676 4.046573 34.035648 31.37752
2006-06-07 07:39:55 51°19.953 2°37.065 13.3661 4.047521 34.041105 31.41123
2006-06-07 07:40:55 51°19.953 2°37.065 13.352 4.048154 34.051873 31.444939
2006-06-07 07:41:55 51°19.953 2°37.065 13.3613 4.048786 34.060573 31.41123
2006-06-07 07:42:55 51°19.954 2°37.065 13.3648 4.049102 34.05871 31.41123
2006-06-07 07:43:55 51°19.955 2°37.064 13.3666 4.049313 34.057238 31.41123
2006-06-07 07:44:55 51°19.955 2°37.065 13.3741 4.049102 34.053189 31.37752
2006-06-07 07:45:55 51°19.956 2°37.066 13.3774 4.048997 34.045301 31.37752
2006-06-07 07:46:55 51°19.956 2°37.068 13.382 4.048891 34.041553 31.37752
2006-06-07 07:47:55 51°19.956 2°37.068 13.3866 4.049418 34.037537 31.41123
2006-06-07 07:48:55 51°19.957 2°37.068 13.3964 4.05005 34.040714 31.41123
2006-06-07 07:49:55 51°19.956 2°37.069 13.4005 4.050577 34.037388 31.41123
2006-06-07 07:50:55 51°19.955 2°37.071 13.4125 4.050472 34.0302 31.41123
2006-06-07 07:51:55 51°19.955 2°37.071 13.4129 4.050366 34.02508 31.41123
2006-06-07 07:52:55 51°19.955 2°37.072 13.4222 4.050683 34.025291 31.444939
2006-06-07 07:53:55 51°19.956 2°37.071 13.4297 4.050577 34.018108 31.41123
2006-06-07 07:54:55 51°19.956 2°37.071 13.4286 4.050577 34.011916 31.444939
2006-06-07 07:55:55 51°19.957 2°37.071 13.4374 4.050893 34.011441 31.41123
2006-06-07 07:56:55 51°19.957 2°37.071 13.439 4.051209 34.008215 31.41123
2006-06-07 07:57:55 51°19.958 2°37.072 13.4584 4.051314 34.003703 31.41123
2006-06-07 07:58:53 51°19.958 2°37.071 13.4583 4.051314 33.994083 31.37752
2006-06-07 07:59:55 51°19.958 2°37.071 13.4726 4.050998 33.987 31.41123
2006-06-07 08:00:55 51°19.958 2°37.071 13.4732 4.049206 33.961299 31.37752
2006-06-07 08:01:53 51°19.959 2°37.07 13.477 4.051525 33.978892 31.41123
2006-06-07 08:02:53 51°19.959 2°37.071 13.4855 4.05163 33.977134 31.41123
2006-06-07 08:03:54 51°19.958 2°37.072 13.4799 4.051841 33.974991 31.41123
2006-06-07 08:04:55 51°19.958 2°37.073 13.4891 4.051525 33.974775 31.41123
2006-06-07 08:05:55 51°19.957 2°37.074 13.4918 4.052473 33.975422 31.444939
2006-06-07 08:06:55 51°19.957 2°37.074 13.4931 4.052684 33.976709 31.41123
2006-06-07 08:07:55 51°19.957 2°37.074 13.5086 4.053211 33.975469 31.444939
2006-06-07 08:08:54 51°19.958 2°37.074 13.5059 4.054476 33.978389 31.41123
2006-06-07 08:09:55 51°19.958 2°37.075 13.504 4.056267 33.995839 31.444939
2006-06-07 08:10:55 51°19.959 2°37.074 13.5027 4.057216 34.005401 31.444939
2006-06-07 08:11:55 51°19.96 2°37.074 13.5048 4.058059 34.014664 31.41123
2006-06-07 08:12:55 51°19.961 2°37.075 13.5109 4.058586 34.018909 31.41123
2006-06-07 08:13:55 51°19.961 2°37.077 13.5122 4.059113 34.021094 31.37752
2006-06-07 08:14:53 51°19.962 2°37.077 13.5175 4.05964 34.02122 31.37752
2006-06-07 08:15:55 51°19.962 2°37.078 13.52 4.060483 34.022932 31.37752
2006-06-07 08:16:55 51°19.961 2°37.078 13.5248 4.060905 34.026876 31.343811
2006-06-07 08:17:53 51°19.961 2°37.078 13.5289 4.061748 34.030646 31.310101
2006-06-07 08:18:55 51°19.961 2°37.079 13.5297 4.061853 34.030945 31.310101
2006-06-07 08:19:55 51°19.961 2°37.079 13.5345 4.062064 34.033604 31.310101
2006-06-07 08:20:55 51°19.961 2°37.08 13.5329 4.062907 34.036686 31.310101
2006-06-07 08:21:54 51°19.961 2°37.08 13.5276 4.063012 34.037672 31.276392
2006-06-07 08:22:55 51°19.961 2°37.08 13.5296 4.062907 34.039432 31.310101
2006-06-07 08:23:55 51°19.962 2°37.08 13.5317 4.063223 34.04033 31.242683
2006-06-07 08:24:53 51°19.962 2°37.08 13.527 4.062802 34.038446 31.276392
2006-06-07 08:25:55 51°19.962 2°37.079 13.5277 4.062802 34.039819 31.276392
2006-06-07 08:26:55 51°19.963 2°37.079 13.5244 4.062802 34.043251 31.276392
2006-06-07 08:27:55 51°19.963 2°37.08 13.5289 4.062486 34.03892 31.242683
2006-06-07 08:28:53 51°19.964 2°37.08 13.5269 4.062696 34.040892 31.208973
2006-06-07 08:29:53 51°19.963 2°37.08 13.5305 4.063013 34.042477 31.208973
2006-06-07 08:30:55 51°19.963 2°37.08 13.5309 4.063434 34.045048 31.175264
2006-06-07 08:31:55 51°19.962 2°37.079 13.5397 4.063645 34.04496 31.175264
2006-06-07 08:32:55 51°19.962 2°37.08 13.545 4.064804 34.048253 31.175264
2006-06-07 08:33:55 51°19.961 2°37.08 13.5506 4.065542 34.048289 31.141554
2006-06-07 08:34:55 51°19.962 2°37.081 13.5525 4.065647 34.047902 31.107845
2006-06-07 08:35:55 51°19.962 2°37.081 13.561 4.066069 34.047041 31.141554
2006-06-07 08:36:53 51°19.962 2°37.081 13.5685 4.066701 34.043349 31.141554
2006-06-07 08:37:55 51°19.963 2°37.08 13.5693 4.066806 34.042963 31.141554
2006-06-07 08:38:55 51°19.963 2°37.08 13.5672 4.067017 34.043562 31.107845
2006-06-07 08:39:55 51°19.963 2°37.081 13.5689 4.066701 34.040606 31.107845
2006-06-07 08:40:53 51°19.963 2°37.08 13.5679 4.066279 34.037352 31.040426
2006-06-07 08:41:53 51°19.963 2°37.081 13.573 4.066279 34.035295 31.040426
2006-06-07 08:42:53 51°19.963 2°37.081 13.5692 4.066174 34.032939 31.040426
2006-06-07 08:43:55 51°19.963 2°37.081 13.5721 4.065858 34.032726 31.040426
2006-06-07 08:44:53 51°19.963 2°37.081 13.5672 4.065963 34.030969 31.040426
2006-06-07 08:45:55 51°19.962 2°37.081 13.5632 4.065752 34.032427 31.040426
2006-06-07 08:46:55 51°19.962 2°37.081 13.5592 4.065647 34.036241 31.040426
2006-06-07 08:47:55 51°19.962 2°37.081 13.5515 4.065542 34.040742 31.040426
2006-06-07 08:48:53 51°19.961 2°37.081 13.5374 4.065647 34.047216 31.040426
2006-06-07 08:49:55 51°19.961 2°37.082 13.5301 4.065331 34.057301 31.006717
2006-06-07 08:50:55 51°19.962 2°37.081 13.5341 4.065437 34.061034 31.040426
2006-06-07 08:51:55 51°19.962 2°37.081 13.5286 4.065226 34.059062 31.006717
2006-06-07 08:52:55 51°19.963 2°37.081 13.5317 4.065015 34.056403 30.973007
2006-06-07 08:53:55 51°19.964 2°37.081 13.5428 4.064383 34.049801 30.973007
2006-06-07 08:54:53 51°19.964 2°37.081 13.5496 4.064593 34.040105 30.939298
2006-06-07 08:55:55 51°19.965 2°37.082 13.5637 4.064277 34.030976 30.905589
2006-06-07 08:56:55 51°19.965 2°37.082 13.5748 4.064382 34.020307 30.905589
2006-06-07 08:57:54 51°19.965 2°37.082 13.5924 4.064487 34.011016 30.905589
2006-06-07 08:58:55 51°19.966 2°37.082 13.6036 4.06512 34.000494 30.871879
2006-06-07 08:59:55 51°19.966 2°37.083 13.6248 4.064909 33.990317 30.905589
2006-06-07 09:00:55 51°19.966 2°37.084 13.6486 4.065962 33.9776 30.871879
2006-06-07 09:01:55 51°19.966 2°37.086 13.6646 4.067227 33.968232 30.905589
2006-06-07 09:02:55 51°19.966 2°37.086 13.681 4.067964 33.96283 30.939298
2006-06-07 09:03:55 51°19.966 2°37.086 13.709 4.068596 33.949637 30.905589
2006-06-07 09:04:55 51°19.966 2°37.086 13.7277 4.070283 33.947637 30.871879
2006-06-07 09:05:55 51°19.966 2°37.087 13.7402 4.069861 33.926701 30.905589
2006-06-07 09:06:55 51°19.966 2°37.087 13.7425 4.070388 33.924126 30.905589
2006-06-07 09:07:55 51°19.966 2°37.087 13.7557 4.072074 33.935738 30.939298
2006-06-07 09:08:55 51°19.965 2°37.088 13.7563 4.073971 33.94251 30.939298
2006-06-07 09:09:55 51°19.965 2°37.089 13.7508 4.073655 33.942288 30.939298
2006-06-07 09:10:55 51°19.965 2°37.089 13.7581 4.073339 33.943426 30.939298
2006-06-07 09:11:55 51°19.965 2°37.089 13.7725 4.073971 33.939112 30.939298
2006-06-07 09:12:55 51°19.966 2°37.089 13.7824 4.075341 33.936905 30.939298
2006-06-07 09:13:55 51°19.965 2°37.089 13.7814 4.075973 33.939388 30.939298
2006-06-07 09:14:55 51°19.965 2°37.089 13.7841 4.075868 33.941125 30.939298
2006-06-07 09:15:55 51°19.965 2°37.089 13.7856 4.076395 33.94127 30.905589
2006-06-07 09:16:55 51°19.965 2°37.089 13.7939 4.077238 33.943674 30.905589
2006-06-07 09:17:55 51°19.965 2°37.09 13.8043 4.077976 33.945778 30.905589
2006-06-07 09:18:55 51°19.965 2°37.09 13.8147 4.078819 33.944787 30.83817
2006-06-07 09:19:55 51°19.965 2°37.09 13.8405 4.08061 33.947179 30.83817
2006-06-07 09:20:55 51°19.964 2°37.09 13.8653 4.083456 33.951219 30.80446
2006-06-07 09:21:55 51°19.964 2°37.09 13.8893 4.086512 33.960603 30.83817
2006-06-07 09:22:55 51°19.964 2°37.09 13.9077 4.089674 33.966893 30.770751
2006-06-07 09:23:55 51°19.965 2°37.09 13.9034 4.091887 33.978611 30.770751
2006-06-07 09:24:55 51°19.965 2°37.091 13.8964 4.092203 33.984932 30.737042
2006-06-07 09:25:55 51°19.965 2°37.091 13.8972 4.091992 33.9884 30.703332
2006-06-07 09:26:55 51°19.965 2°37.091 13.9158 4.091149 33.973125 30.669623
2006-06-07 09:27:55 51°19.965 2°37.091 13.9045 4.093679 33.987094 30.635913
2006-06-07 09:28:55 51°19.965 2°37.091 13.8829 4.090411 33.977803 30.635913
2006-06-07 09:29:54 51°19.965 2°37.091 13.8786 4.086196 33.948181 30.602204
2006-06-07 09:30:55 51°19.965 2°37.091 13.8847 4.092625 34.006476 30.568494
2006-06-07 09:31:55 51°19.965 2°37.091 13.8948 4.094101 34.012024 30.501076
2006-06-07 09:32:55 51°19.965 2°37.091 13.8925 4.095787 34.022239 30.467366
2006-06-07 09:33:55 51°19.965 2°37.092 13.8693 4.095682 34.029407 30.433657
2006-06-07 09:34:55 51°19.965 2°37.092 13.8419 4.094101 34.03783 30.399947
2006-06-07 09:35:55 51°19.965 2°37.092 13.8276 4.092836 34.044443 30.366238
2006-06-07 09:36:55 51°19.964 2°37.092 13.8282 4.092204 34.051496 30.298819
2006-06-07 09:37:55 51°19.964 2°37.092 13.8397 4.093153 34.056907 30.26511
2006-06-07 09:38:55 51°19.964 2°37.092 13.835 4.094523 34.060789 30.197691
2006-06-07 09:39:55 51°19.964 2°37.092 13.8317 4.094417 34.063894 30.163982
2006-06-07 09:40:55 51°19.964 2°37.092 13.833 4.094628 34.070618 30.096563
2006-06-07 09:41:55 51°19.965 2°37.091 13.8467 4.095577 34.0699 30.029144
2006-06-07 09:42:55 51°19.965 2°37.092 13.8475 4.096315 34.072669 29.995435
2006-06-07 09:43:55 51°19.965 2°37.092 13.8512 4.097158 34.075737 29.928016
2006-06-07 09:44:55 51°19.964 2°37.092 13.8441 4.097579 34.078291 29.894306
2006-06-07 09:45:55 51°19.964 2°37.092 13.831 4.096842 34.08165 29.860597
2006-06-07 09:46:55 51°19.964 2°37.092 13.811 4.096104 34.087737 29.894306
2006-06-07 09:47:55 51°19.965 2°37.091 13.7921 4.094418 34.090465 29.793178
2006-06-07 09:48:55 51°19.965 2°37.091 13.7691 4.093469 34.096649 29.759469
2006-06-07 09:49:54 51°19.966 2°37.091 13.7551 4.091889 34.101735 29.759469
2006-06-07 09:50:55 51°19.966 2°37.091 13.7285 4.090308 34.104095 29.725759
2006-06-07 09:51:55 51°19.965 2°37.091 13.7178 4.088833 34.106758 29.658341
2006-06-07 09:52:55 51°19.965 2°37.09 13.7042 4.088306 34.11074 29.624631
2006-06-07 09:53:55 51°19.964 2°37.09 13.6901 4.087252 34.114603 29.557212
2006-06-07 09:54:55 51°19.964 2°37.09 13.6711 4.086198 34.11984 29.557212
2006-06-07 09:55:55 51°19.965 2°37.09 13.6611 4.085039 34.124785 29.523503
2006-06-07 09:56:55 51°19.965 2°37.091 13.6443 4.084512 34.129465 29.489794
2006-06-07 09:57:55 51°19.965 2°37.089 13.6262 4.083775 34.13424 29.422375
2006-06-07 09:58:55 51°19.965 2°37.09 13.623 4.082721 34.138812 29.388665
2006-06-07 09:59:55 51°19.964 2°37.09 13.6129 4.081983 34.140161 29.321247
2006-06-07 10:00:55 51°19.964 2°37.09 13.5985 4.081456 34.142106 29.321247
2006-06-07 10:01:55 51°19.964 2°37.089 13.587 4.080929 34.146114 29.287537
2006-06-07 10:02:55 51°19.965 2°37.089 13.5745 4.080192 34.15228 29.253828
2006-06-07 10:03:55 51°19.965 2°37.089 13.5667 4.079349 34.15265 29.253828
2006-06-07 10:04:55 51°19.965 2°37.089 13.5576 4.078611 34.157448 29.186409
2006-06-07 10:05:54 51°19.965 2°37.088 13.5497 4.078611 34.158824 29.1527
2006-06-07 10:06:55 51°19.965 2°37.09 13.5426 4.0784 34.165802 29.1527
2006-06-07 10:07:55 51°19.964 2°37.09 13.5249 4.077874 34.170514 29.11899
2006-06-07 10:08:55 51°19.964 2°37.088 13.525 4.07682 34.175121 29.051571
2006-06-07 10:09:55 51°19.964 2°37.088 13.5124 4.07682 34.179257 29.017862
2006-06-07 10:10:55 51°19.964 2°37.089 13.5038 4.076609 34.182801 29.017862
2006-06-07 10:11:55 51°19.965 2°37.088 13.4977 4.076082 34.184764 28.984153
2006-06-07 10:12:55 51°19.966 2°37.089 13.4885 4.075661 34.189096 28.916734
2006-06-07 10:13:55 51°19.966 2°37.089 13.4801 4.075134 34.192443 28.883024
2006-06-07 10:14:55 51°19.965 2°37.089 13.4723 4.074818 34.194313 28.815606
2006-06-07 10:15:55 51°19.965 2°37.089 13.4673 4.074607 34.197173 28.815606
2006-06-07 10:16:55 51°19.964 2°37.089 13.4595 4.074291 34.203191 28.781896
2006-06-07 10:17:55 51°19.964 2°37.089 13.4525 4.073975 34.205065 28.781896
2006-06-07 10:18:55 51°19.963 2°37.089 13.4461 4.073975 34.206448 28.781896
2006-06-07 10:19:55 51°19.964 2°37.089 13.4477 4.074186 34.213265 28.714477
2006-06-07 10:20:54 51°19.964 2°37.089 13.4392 4.07387 34.214449 28.680768
2006-06-07 10:21:55 51°19.965 2°37.089 13.4366 4.073975 34.219588 28.680768
2006-06-07 10:22:55 51°19.965 2°37.089 13.4308 4.073764 34.221763 28.647059
2006-06-07 10:23:55 51°19.965 2°37.089 13.4276 4.073975 34.225817 28.647059
2006-06-07 10:24:55 51°19.967 2°37.089 13.4315 4.074291 34.23086 28.57964
2006-06-07 10:25:53 51°19.965 2°37.089 13.4369 4.074818 34.230266 28.54593
2006-06-07 10:26:55 51°19.964 2°37.089 13.4406 4.075661 34.234714 28.512221
2006-06-07 10:27:55 51°19.964 2°37.089 13.4396 4.076399 34.240251 28.478512
2006-06-07 10:28:52 51°19.965 2°37.089 13.4433 4.076294 34.239954 28.444802
2006-06-07 10:29:55 51°19.965 2°37.088 13.448 4.076715 34.241832 28.444802
2006-06-07 10:30:55 51°19.966 2°37.088 13.4485 4.077348 34.242918 28.377383
2006-06-07 10:31:55 51°19.966 2°37.088 13.4387 4.077558 34.244202 28.343674
2006-06-07 10:32:55 51°19.966 2°37.088 13.4351 4.076821 34.249745 28.377383
2006-06-07 10:33:55 51°19.965 2°37.088 13.4326 4.076399 34.24579 28.343674
2006-06-07 10:34:55 51°19.965 2°37.089 13.4391 4.076715 34.246678 28.309965
2006-06-07 10:35:55 51°19.965 2°37.089 13.4492 4.077664 34.251422 28.276255
2006-06-07 10:36:55 51°19.964 2°37.088 13.4449 4.07798 34.251618 28.242546
2006-06-07 10:37:52 51°19.965 2°37.088 13.4415 4.077769 34.251718 28.208836
2006-06-07 10:38:55 51°19.965 2°37.09 13.4313 4.077769 34.255874 28.208836
2006-06-07 10:39:55 51°19.964 2°37.09 13.439 4.077032 34.257265 28.208836
2006-06-07 10:40:55 51°19.965 2°37.088 13.4478 4.077664 34.254192 28.175127
2006-06-07 10:41:55 51°19.966 2°37.087 13.4323 4.078191 34.258443 28.141418
2006-06-07 10:42:55 51°19.967 2°37.088 13.4271 4.077137 34.256868 28.141418
2006-06-07 10:43:55 51°19.967 2°37.089 13.4224 4.076821 34.261523 28.107708
2006-06-07 10:44:55 51°19.966 2°37.088 13.4198 4.076505 34.259942 28.107708
2006-06-07 10:45:55 51°19.966 2°37.088 13.4158 4.0764 34.264499 28.073999
2006-06-07 10:46:55 51°19.966 2°37.087 13.4135 4.076189 34.26252 28.00658
2006-06-07 10:47:55 51°19.967 2°37.086 13.4034 4.076083 34.265691 27.972871
2006-06-07 10:48:55 51°19.969 2°37.086 13.403 4.075767 34.267577 27.972871
2006-06-07 10:49:55 51°19.97 2°37.084 13.408 4.075767 34.266883 27.972871
2006-06-07 10:50:55 51°19.97 2°37.083 13.4085 4.075978 34.268862 27.905452
2006-06-07 10:51:55 51°19.97 2°37.081 13.413 4.07661 34.270638 27.905452
2006-06-07 10:52:55 51°19.971 2°37.081 13.4201 4.077032 34.270435 27.905452
2006-06-07 10:53:55 51°19.972 2°37.081 13.4171 4.077454 34.274392 27.838033
2006-06-07 10:54:53 51°19.971 2°37.083 13.4186 4.077559 34.274688 27.804324
2006-06-07 10:55:55 51°19.969 2°37.085 13.4156 4.078086 34.278248 27.804324
2006-06-07 10:56:55 51°19.968 2°37.086 13.4115 4.077559 34.278156 27.804324
2006-06-07 10:57:55 51°19.968 2°37.085 13.4182 4.077664 34.278452 27.770614
2006-06-07 10:58:55 51°19.968 2°37.083 13.4191 4.078402 34.281216 27.770614
2006-06-07 10:59:55 51°19.97 2°37.081 13.4138 4.078508 34.284287 27.669486
2006-06-07 11:00:55 51°19.971 2°37.081 13.4139 4.078297 34.284389 27.703195
2006-06-07 11:01:55 51°19.971 2°37.081 13.4181 4.078508 34.284287 27.635777
2006-06-07 11:02:55 51°19.971 2°37.081 13.4267 4.079245 34.287744 27.635777
2006-06-07 11:03:55 51°19.971 2°37.081 13.4267 4.080088 34.289415 27.602067
2006-06-07 11:04:55 51°19.97 2°37.082 13.4269 4.080088 34.288721 27.568358
2006-06-07 11:05:55 51°19.97 2°37.083 13.421 4.080299 34.291394 27.602067
2006-06-07 11:06:55 51°19.97 2°37.082 13.4275 4.079772 34.289222 27.534648
2006-06-07 11:07:55 51°19.97 2°37.082 13.4281 4.079983 34.288426 27.534648
2006-06-07 11:08:55 51°19.97 2°37.082 13.4261 4.080721 34.293269 27.534648
2006-06-07 11:09:55 51°19.97 2°37.082 13.4263 4.080194 34.292485 27.500939
2006-06-07 11:10:54 51°19.971 2°37.081 13.4237 4.080299 34.294168 27.500939
2006-06-07 11:11:55 51°19.971 2°37.081 13.4303 4.080405 34.294464 27.46723
2006-06-07 11:12:55 51°19.972 2°37.081 13.4401 4.081142 34.293758 27.43352
2006-06-07 11:13:55 51°19.972 2°37.082 13.4481 4.082302 34.296315 27.399811
2006-06-07 11:14:55 51°19.971 2°37.082 13.4446 4.082829 34.297792 27.399811
2006-06-07 11:15:55 51°19.971 2°37.083 13.4431 4.082934 34.299474 27.366101
2006-06-07 11:16:55 51°19.97 2°37.083 13.4469 4.082723 34.29819 27.366101
2006-06-07 11:17:55 51°19.97 2°37.083 13.4406 4.083039 34.300463 27.366101
2006-06-07 11:18:55 51°19.97 2°37.083 13.4367 4.082618 34.302056 27.366101
2006-06-07 11:19:55 51°19.97 2°37.084 13.4469 4.082302 34.298395 27.366101
2006-06-07 11:20:55 51°19.969 2°37.085 13.4471 4.083355 34.302043 27.298683
2006-06-07 11:21:55 51°19.969 2°37.084 13.4436 4.083039 34.30185 27.264973
2006-06-07 11:22:55 51°19.969 2°37.083 13.4498 4.083145 34.302146 27.231264
2006-06-07 11:23:55 51°19.97 2°37.082 13.4552 4.084093 34.304804 27.231264
2006-06-07 11:24:55 51°19.969 2°37.082 13.4517 4.084409 34.307076 27.231264
2006-06-07 11:25:55 51°19.969 2°37.082 13.4484 4.084093 34.306884 27.197554
2006-06-07 11:26:55 51°19.968 2°37.083 13.4454 4.083988 34.30867 27.163845
2006-06-07 11:27:55 51°19.969 2°37.083 13.4396 4.083356 34.306898 27.163845
2006-06-07 11:28:55 51°19.97 2°37.083 13.4422 4.083356 34.307592 27.163845
2006-06-07 11:29:55 51°19.969 2°37.083 13.441 4.083566 34.306795 27.130136
2006-06-07 11:30:55 51°19.969 2°37.083 13.4353 4.083356 34.308285 27.096426
2006-06-07 11:31:55 51°19.968 2°37.083 13.4524 4.083777 34.308079 27.130136
2006-06-07 11:32:55 51°19.969 2°37.082 13.4566 4.084936 34.308553 27.096426
2006-06-07 11:33:55 51°19.97 2°37.081 13.447 4.084936 34.30994 27.096426
2006-06-07 11:34:55 51°19.97 2°37.081 13.4435 4.084199 34.311341 27.096426
2006-06-07 11:35:55 51°19.971 2°37.08 13.441 4.084093 34.313127 27.062717
2006-06-07 11:36:55 51°19.97 2°37.08 13.4422 4.083988 34.312138 27.062717
2006-06-07 11:37:55 51°19.97 2°37.081 13.4389 4.083777 34.311548 27.029007
2006-06-07 11:38:55 51°19.97 2°37.08 13.4382 4.084199 34.314116 27.029007
2006-06-07 11:39:55 51°19.97 2°37.081 13.4393 4.083988 34.314219 26.995298
2006-06-07 11:40:55 51°19.97 2°37.081 13.4477 4.084831 34.317274 26.995298
2006-06-07 11:41:55 51°19.971 2°37.081 13.4547 4.085042 34.315783 26.995298
2006-06-07 11:42:55 51°19.97 2°37.08 13.4563 4.085674 34.318248 26.961589
2006-06-07 11:43:55 51°19.97 2°37.079 13.4598 4.085885 34.316757 26.927879
2006-06-07 11:44:55 51°19.97 2°37.079 13.4617 4.086412 34.317539 26.927879
2006-06-07 11:45:55 51°19.97 2°37.078 13.4583 4.086307 34.317244 26.927879
2006-06-07 11:46:55 51°19.97 2°37.079 13.4614 4.086623 34.316743 26.89417
2006-06-07 11:47:55 51°19.97 2°37.08 13.4598 4.086623 34.316049 26.89417
2006-06-07 11:48:55 51°19.97 2°37.081 13.4546 4.08599 34.315665 26.89417
2006-06-07 11:49:55 51°19.969 2°37.081 13.4428 4.085042 34.315783 26.89417
2006-06-07 11:50:55 51°19.969 2°37.081 13.4474 4.08462 34.315297 26.89417
2006-06-07 11:51:55 51°19.969 2°37.08 13.4522 4.085674 34.316861 26.86046
2006-06-07 11:52:55 51°19.969 2°37.079 13.4537 4.08599 34.319133 26.826751
2006-06-07 11:53:55 51°19.968 2°37.079 13.4508 4.086201 34.31903 26.826751
2006-06-07 11:54:55 51°19.967 2°37.079 13.4421 4.085358 34.319444 26.826751
2006-06-07 11:55:55 51°19.968 2°37.079 13.4417 4.085042 34.32064 26.759332
2006-06-07 11:56:55 51°19.968 2°37.079 13.4552 4.085569 34.321422 26.759332
2006-06-07 11:57:55 51°19.969 2°37.079 13.4484 4.08599 34.323296 26.793042
2006-06-07 11:58:53 51°19.968 2°37.08 13.4482 4.08599 34.323296 26.759332
2006-06-07 11:59:55 51°19.969 2°37.081 13.4342 4.085464 34.324596 26.725623
2006-06-07 12:00:55 51°19.969 2°37.081 13.4398 4.085042 34.322028 26.725623
2006-06-07 12:01:55 51°19.968 2°37.08 13.4394 4.084937 34.324509 26.691913
2006-06-07 12:02:54 51°19.968 2°37.079 13.4295 4.085253 34.325394 26.691913
2006-06-07 12:03:53 51°19.968 2°37.078 13.4285 4.084199 34.323832 26.691913
2006-06-07 12:04:53 51°19.969 2°37.077 13.4217 4.084094 34.32562 26.658204
2006-06-07 12:05:55 51°19.969 2°37.077 13.4294 4.083777 34.321958 26.590785
2006-06-07 12:06:55 51°19.97 2°37.077 13.4407 4.084515 34.322635 26.624494
2006-06-07 12:07:54 51°19.97 2°37.077 13.4355 4.085464 34.326678 26.624494
2006-06-07 12:08:53 51°19.97 2°37.077 13.4382 4.085042 34.32411 26.590785
2006-06-07 12:09:55 51°19.97 2°37.077 13.455 4.085569 34.324891 26.557076
2006-06-07 12:10:55 51°19.97 2°37.077 13.4702 4.087571 34.324252 26.523366
2006-06-07 12:11:55 51°19.97 2°37.076 13.4695 4.088625 34.329282 26.557076
2006-06-07 12:12:55 51°19.97 2°37.076 13.4858 4.088941 34.327393 26.523366
2006-06-07 12:13:54 51°19.97 2°37.076 13.4867 4.090311 34.32984 26.523366
2006-06-07 12:14:55 51°19.969 2°37.075 13.4843 4.090522 34.330429 26.489657
2006-06-07 12:15:55 51°19.969 2°37.074 13.4906 4.090206 34.330931 26.489657
2006-06-07 12:16:55 51°19.97 2°37.073 13.5101 4.091365 34.330709 26.489657
2006-06-07 12:17:55 51°19.97 2°37.073 13.5177 4.093157 34.332256 26.455947
2006-06-07 12:18:54 51°19.97 2°37.074 13.5171 4.093684 34.332345 26.455947
2006-06-07 12:19:55 51°19.971 2°37.073 13.51 4.093368 34.334924 26.455947
2006-06-07 12:20:55 51°19.971 2°37.073 13.5116 4.093051 34.332654 26.455947
2006-06-07 12:21:55 51°19.971 2°37.073 13.5139 4.093262 34.333244 26.422238
2006-06-07 12:22:55 51°19.971 2°37.072 13.5153 4.093157 34.333642 26.388529
2006-06-07 12:23:55 51°19.97 2°37.072 13.5305 4.093789 34.331947 26.422238
2006-06-07 12:24:53 51°19.969 2°37.071 13.5448 4.095581 34.332111 26.388529
2006-06-07 12:25:55 51°19.968 2°37.07 13.5522 4.09674 34.334661 26.388529
2006-06-07 12:26:55 51°19.968 2°37.069 13.5463 4.097056 34.334161 26.422238
2006-06-07 12:27:55 51°19.967 2°37.069 13.5441 4.096213 34.333879 26.388529
2006-06-07 12:28:55 51°19.967 2°37.069 13.5413 4.096424 34.336545 26.354819
2006-06-07 12:29:55 51°19.967 2°37.07 13.531 4.095897 34.335072 26.388529
2006-06-07 12:30:55 51°19.967 2°37.07 13.526 4.094738 34.333907 26.354819
2006-06-07 12:31:55 51°19.968 2°37.07 13.5181 4.094316 34.334806 26.354819
2006-06-07 12:32:55 51°19.968 2°37.071 13.5164 4.094 34.334614 26.32111
2006-06-07 12:33:55 51°19.968 2°37.071 13.5121 4.093684 34.335808 26.354819
2006-06-07 12:34:55 51°19.968 2°37.07 13.4986 4.092735 34.333155 26.32111
2006-06-07 12:35:55 51°19.968 2°37.068 13.4984 4.091787 34.333967 26.2874
2006-06-07 12:36:55 51°19.969 2°37.067 13.503 4.091998 34.33525 26.2874
2006-06-07 12:37:55 51°19.969 2°37.066 13.4978 4.092208 34.33376 26.253691
2006-06-07 12:38:55 51°19.969 2°37.065 13.5031 4.091892 34.333569 26.2874
2006-06-07 12:39:55 51°19.969 2°37.066 13.5072 4.092525 34.333951 26.219982
2006-06-07 12:40:55 51°19.969 2°37.066 13.5146 4.093051 34.33404 26.219982
2006-06-07 12:41:55 51°19.968 2°37.065 13.5126 4.093368 34.33146 26.253691
2006-06-07 12:42:55 51°19.968 2°37.064 13.5144 4.093157 34.332256 26.219982
2006-06-07 12:43:55 51°19.967 2°37.063 13.5711 4.093368 34.332153 26.186272
2006-06-07 12:44:55 51°19.965 2°37.062 13.5994 4.101588 34.321952 26.152563
2006-06-07 12:45:55 51°19.964 2°37.06 13.5909 4.101166 34.322845 26.152563
2006-06-07 12:46:55 51°19.961 2°37.058 13.544 4.100007 34.323746 26.152563
2006-06-07 12:47:55 51°19.953 2°37.048 13.602 4.097899 34.31785 26.219982
2006-06-07 12:48:55 51°19.953 2°37.044 13.5307 4.101166 34.321464 26.253691
2006-06-07 12:49:55 51°19.962 2°37.053 13.4486 4.092419 34.324652 26.32111
2006-06-07 12:50:55 51°19.972 2°37.064 13.4958 4.086728 34.316344 26.2874
2006-06-07 12:51:55 51°19.981 2°37.071 13.4359 4.0901 34.320934 26.253691
2006-06-07 12:52:55 51°19.986 2°37.075 13.4707 4.088203 34.315623 26.186272
2006-06-07 12:53:55 51°19.99 2°37.076 13.4684 4.087466 34.32257 26.219982
2006-06-07 12:54:55 51°19.984 2°37.072 13.4735 4.08852 34.318588 26.186272
2006-06-07 12:55:54 51°19.913 2°37.124 13.5861 4.090943 34.315675 26.118853
2006-06-07 12:56:55 51°19.779 2°37.326 13.4703 4.092419 34.324652 26.118853
2006-06-07 12:57:53 51°19.661 2°37.59 13.5081 4.087887 34.311966 26.085144
2006-06-07 12:58:55 51°19.53 2°37.866 13.601 4.089889 34.296804 26.017725
2006-06-07 12:59:55 51°19.403 2°38.131 13.5849 4.093261 34.223487 26.118853
2006-06-07 13:00:55 51°19.276 2°38.397 13.5417 4.072814 34.088133 26.186272
2006-06-07 13:01:55 51°19.16 2°38.678 13.5532 4.077241 34.150138 26.219982
2006-06-07 13:02:55 51°19.046 2°38.963 13.7866 4.081456 34.145541 26.152563
2006-06-07 13:03:55 51°18.932 2°39.248 13.7195 4.098634 34.157001 26.118853
2006-06-07 13:04:55 51°18.825 2°39.546 13.7904 4.089781 34.123805 26.186272
2006-06-07 13:05:55 51°18.714 2°39.84 13.8011 4.079557 33.969307 26.152563
2006-06-07 13:06:55 51°18.601 2°40.134 14.0172 4.07924 33.901248 26.354819
2006-06-07 13:07:55 51°18.484 2°40.415 13.9831 4.098209 33.90007 26.489657
2006-06-07 13:08:53 51°18.374 2°40.684 13.8051 4.088514 33.956818 26.624494
2006-06-07 13:09:55 51°18.251 2°40.968 13.8218 4.07787 33.933258 26.725623
2006-06-07 13:10:55 51°18.136 2°41.247 13.8357 4.075973 33.926487 26.826751
2006-06-07 13:11:55 51°18.019 2°41.526 13.8866 4.08219 33.899529 26.89417
2006-06-07 13:12:55 51°17.912 2°41.814 14.0833 4.079239 33.879601 26.961589
2006-06-07 13:13:55 51°17.804 2°42.101 13.8838 4.091147 33.847614 27.096426
2006-06-07 13:14:55 51°17.696 2°42.386 13.9664 4.072704 33.779926 27.298683
2006-06-07 13:15:55 51°17.586 2°42.67 13.8917 4.065748 33.712164 27.332392
2006-06-07 13:16:55 51°17.473 2°42.948 14.0109 4.061953 33.651573 27.366101
2006-06-07 13:17:55 51°17.363 2°43.221 13.7934 4.056367 33.634736 27.43352
2006-06-07 13:18:55 51°17.249 2°43.494 13.7712 4.041403 33.610148 27.500939
2006-06-07 13:19:55 51°17.139 2°43.776 13.9039 4.042773 33.60673 27.602067
2006-06-07 13:20:53 51°17.031 2°44.047 14.0237 4.056156 33.616709 27.669486
2006-06-07 13:21:55 51°16.914 2°44.334 13.9718 4.063428 33.615044 27.770614
2006-06-07 13:22:55 51°16.801 2°44.612 14.0179 4.054048 33.571804 27.939161
2006-06-07 13:23:55 51°16.69 2°44.891 14.1151 4.061109 33.569623 28.00658
2006-06-07 13:24:55 51°16.579 2°45.167 13.9543 4.051201 33.469596 28.242546
2006-06-07 13:25:55 51°16.469 2°45.447 14.1014 4.041084 33.419437 28.309965
2006-06-07 13:26:53 51°16.377 2°45.733 14.1241 4.052992 33.409219 28.377383
2006-06-07 13:27:55 51°16.271 2°46.032 14.189 4.044666 33.344516 28.478512
2006-06-07 13:28:55 51°16.182 2°46.33 14.3607 4.044138 33.298136 28.613349
2006-06-07 13:29:55 51°16.133 2°46.655 14.2783 4.056994 33.28276 28.714477
2006-06-07 13:30:55 51°16.079 2°46.98 14.348 4.047194 33.279508 28.916734
2006-06-07 13:31:55 51°16.025 2°47.305 14.507 4.060366 33.238427 28.984153
2006-06-07 13:32:55 51°15.968 2°47.627 14.5168 4.070377 33.260721 29.1527
2006-06-07 13:33:55 51°15.917 2°47.946 14.5134 4.073328 33.264838 29.287537
2006-06-07 13:34:55 51°15.86 2°48.258 14.4619 4.066056 33.195966 29.456084
2006-06-07 13:35:55 51°15.805 2°48.568 14.3994 4.043186 33.054296 29.725759
2006-06-07 13:36:55 51°15.754 2°48.881 14.4215 4.013887 32.806505 29.928016
2006-06-07 13:37:55 51°15.696 2°49.191 14.4778 3.988804 32.586281 30.26511
2006-06-07 13:38:55 51°15.64 2°49.501 14.3714 3.985852 32.505835 30.399947
2006-06-07 13:39:54 51°15.585 2°49.807 14.2653 3.971943 32.517612 30.669623
2006-06-07 13:40:55 51°15.527 2°50.121 14.6091 3.964777 32.474585 30.905589
2006-06-07 13:41:55 51°15.477 2°50.435 14.5887 3.998812 32.438947 30.635913
2006-06-07 13:42:55 51°15.417 2°50.744 14.6536 3.9868 32.440778 31.006717
2006-06-07 13:43:55 51°15.362 2°51.054 14.7146 3.991118 32.296504 31.141554
2006-06-07 13:44:55 51°15.304 2°51.363 14.5742 3.960663 32.179923 32.051708
2006-06-07 13:45:55 51°15.246 2°51.671 14.5668 3.95023 32.105513 32.186546
2006-06-07 13:46:55 51°15.186 2°51.98 14.9005 3.953602 32.075319 32.017999
2006-06-07 13:47:54 51°15.129 2°52.284 14.9111 3.982052 32.054991 31.748324
2006-06-07 13:48:55 51°15.066 2°52.593 14.7693 3.966245 31.991579 32.017999
2006-06-07 13:49:55 51°15.008 2°52.899 14.8479 3.948436 31.919225 32.355093
2006-06-07 13:50:55 51°14.946 2°53.202 14.942 3.952124 31.912207 32.287674
2006-06-07 13:51:55 51°14.882 2°53.505 14.96 3.96656 31.906189 32.186546
2006-06-07 13:52:55 51°14.821 2°53.81 14.864 3.968352 31.975893 32.52364
2006-06-07 13:53:55 51°14.755 2°54.11 14.8472 3.963821 31.97412 32.624768
2006-06-07 13:54:55 51°14.651 2°54.366 14.9666 3.956866 31.956119 32.995571
2006-06-07 13:55:55 51°14.544 2°54.618 15.0648 3.967718 31.891987 33.298956
2006-06-07 13:56:55 51°14.437 2°54.867 14.878 3.963714 31.865326 33.838306
2006-06-07 13:57:55 51°14.339 2°55.112 15.2712 3.949698 31.785121 34.20911
2006-06-07 13:58:55 51°14.235 2°55.311 15.1828 3.841051 30.640032 35.051845
2006-06-07 13:59:55 51°14.128 2°55.431 15.224 3.664468 29.072826 36.197965
2006-06-07 14:00:55 51°14.025 2°55.494 15.265 3.611268 28.572416 38.15311
2006-06-07 14:01:54 51°13.921 2°55.572 15.4044 3.527841 27.778059 37.310375
2006-06-07 14:02:56 51°13.807 2°55.657 15.287 3.543114 27.891231 35.827161
2006-06-07 14:03:56 51°13.719 2°55.754 15.657 3.475179 27.324058 36.197965
2006-06-07 14:04:56 51°13.667 2°55.866 15.8355 2.93468 22.407182 35.287811
2006-06-07 14:05:54 51°13.637 2°55.959 15.8162 2.859761 21.768846 35.085554
2006-06-07 14:06:56 51°13.615 2°56.045 15.8106 2.766444 20.982497 35.490067
2006-06-07 14:07:56 51°13.604 2°56.092 15.7262 2.853765 21.738989 35.624905